Terminal Aerodrome Forecast
Issued by NWS Newport/Morehead City, NC

Home | Current Version | Previous Version | Text Only | Print | Product List | Glossary On
Versions: 1 2 3 4 5 6 7 8 9 10 11 12 13
208
FTUS42 KMHX 242324
TAFEWN
TAF
KEWN 242324Z 2500/2524 19011KT 5SM SHRA VCTS SCT007 OVC020CB
     FM250600 20010KT P6SM OVC015
     FM250900 22009KT P6SM SCT015 BKN040
     FM251500 22015G23KT P6SM SCT040=

USA.gov is the U.S. government's official web portal to all federal, state and local government web resources and services.